createdAt,value
2022-12-14T00:01:29.853Z,5.83
2022-12-14T00:04:19.151Z,5.79
2022-12-14T00:07:09.863Z,5.73
2022-12-14T00:09:59.126Z,5.71
2022-12-14T00:12:48.364Z,5.67
2022-12-14T00:15:39.083Z,5.71
2022-12-14T00:18:29.257Z,5.77
2022-12-14T00:21:19.193Z,5.65
2022-12-14T00:24:10.490Z,5.78
2022-12-14T00:26:59.808Z,5.79
2022-12-14T00:29:49.197Z,5.73
2022-12-14T00:32:38.429Z,5.75
2022-12-14T00:35:27.797Z,5.70
2022-12-14T00:38:17.101Z,5.68
2022-12-14T00:41:09.309Z,5.68
2022-12-14T00:43:59.071Z,5.67
2022-12-14T00:46:48.448Z,5.63
2022-12-14T00:49:37.945Z,5.59
2022-12-14T00:52:27.819Z,5.51
2022-12-14T00:55:17.387Z,5.59
2022-12-14T00:58:08.347Z,5.50
2022-12-14T01:01:02.228Z,5.59
2022-12-14T01:04:11.779Z,5.53
2022-12-14T01:07:01.410Z,5.67
2022-12-14T01:09:50.697Z,5.65
2022-12-14T01:12:40.055Z,5.69
2022-12-14T01:15:31.020Z,5.68
2022-12-14T01:18:20.424Z,5.72
2022-12-14T01:21:15.970Z,5.73
2022-12-14T01:24:06.768Z,5.70
2022-12-14T01:26:55.944Z,5.70
2022-12-14T01:29:45.285Z,5.77
2022-12-14T01:32:36.343Z,5.69
2022-12-14T01:35:25.731Z,5.63
2022-12-14T01:38:15.095Z,5.69
2022-12-14T01:41:05.122Z,5.58
2022-12-14T01:43:56.464Z,5.50
2022-12-14T01:46:49.895Z,5.46
2022-12-14T01:49:42.384Z,5.32
2022-12-14T01:52:39.927Z,5.22
2022-12-14T01:55:34.249Z,5.11
2022-12-14T01:58:25.750Z,5.07
2022-12-14T02:01:16.414Z,4.97
2022-12-14T02:04:06.605Z,4.97
2022-12-14T02:07:01.126Z,4.91
2022-12-14T02:09:52.662Z,4.82
2022-12-14T02:12:46.686Z,4.80
2022-12-14T02:15:36.124Z,4.72
2022-12-14T02:18:28.054Z,4.67
2022-12-14T02:21:26.172Z,4.71
2022-12-14T02:24:49.531Z,4.64
2022-12-14T02:28:17.167Z,4.62
2022-12-14T02:31:16.535Z,4.58
2022-12-14T02:34:13.111Z,4.59
2022-12-14T02:37:12.299Z,4.60
2022-12-14T02:40:15.153Z,4.59
2022-12-14T02:43:18.686Z,4.59
2022-12-14T02:46:22.472Z,4.58
2022-12-14T02:49:19.361Z,4.63
2022-12-14T02:52:17.387Z,4.64
2022-12-14T02:55:16.179Z,4.71
2022-12-14T02:58:11.675Z,4.73
2022-12-14T03:01:01.519Z,4.75
2022-12-14T03:03:52.691Z,4.70
2022-12-14T03:06:59.256Z,4.75
2022-12-14T03:09:48.531Z,4.70
2022-12-14T03:12:42.654Z,4.67
2022-12-14T03:15:33.420Z,4.69
2022-12-14T03:18:25.361Z,4.63
2022-12-14T03:21:22.807Z,4.70
2022-12-14T03:24:16.980Z,4.68
2022-12-14T03:27:13.252Z,4.75
2022-12-14T03:30:09.069Z,4.72
2022-12-14T03:33:05.498Z,4.78
2022-12-14T03:36:01.150Z,4.87
2022-12-14T03:38:55.013Z,4.86
2022-12-14T03:41:52.527Z,4.94
2022-12-14T03:44:50.231Z,4.96
2022-12-14T03:48:00.678Z,5.01
2022-12-14T03:50:54.382Z,5.04
2022-12-14T03:53:51.365Z,5.11
2022-12-14T03:56:53.384Z,5.09
2022-12-14T03:59:50.028Z,5.14
2022-12-14T04:02:47.931Z,5.10
2022-12-14T04:05:48.936Z,5.04
2022-12-14T04:08:46.087Z,5.07
2022-12-14T04:12:01.836Z,5.07
2022-12-14T04:15:22.361Z,5.05
2022-12-14T04:18:34.424Z,5.07
2022-12-14T04:21:33.893Z,5.03
2022-12-14T04:24:50.650Z,5.00
2022-12-14T04:27:49.329Z,4.98
2022-12-14T04:30:41.133Z,4.92
2022-12-14T04:33:48.490Z,4.84
2022-12-14T04:36:44.069Z,4.74
2022-12-14T04:39:42.431Z,4.76
2022-12-14T04:42:35.798Z,4.75
2022-12-14T04:45:31.111Z,4.72
2022-12-14T04:48:27.138Z,4.70
2022-12-14T04:51:33.630Z,4.64
2022-12-14T04:54:29.977Z,4.67
2022-12-14T04:57:27.168Z,4.69
2022-12-14T05:00:17.095Z,4.67
2022-12-14T05:03:23.130Z,4.67
2022-12-14T05:06:23.697Z,4.63
2022-12-14T05:09:19.627Z,4.75
2022-12-14T05:12:17.273Z,4.79
2022-12-14T05:15:11.853Z,4.80
2022-12-14T05:18:05.603Z,4.78
2022-12-14T05:20:56.300Z,4.82
2022-12-14T05:23:45.612Z,4.70
2022-12-14T05:26:35.102Z,4.73
2022-12-14T05:29:24.443Z,4.66
2022-12-14T05:32:14.635Z,4.70
2022-12-14T05:35:05.119Z,4.70
2022-12-14T05:37:55.859Z,4.74
2022-12-14T05:40:45.082Z,4.79
2022-12-14T05:43:34.497Z,4.85
2022-12-14T05:46:23.920Z,4.89
2022-12-14T05:49:13.416Z,4.95
2022-12-14T05:52:02.863Z,4.97
2022-12-14T05:54:55.532Z,4.96
2022-12-14T05:57:46.694Z,4.80
2022-12-14T06:00:36.039Z,4.98
2022-12-14T06:03:25.942Z,5.05
2022-12-14T06:06:16.379Z,4.96
2022-12-14T06:09:07.950Z,4.99
2022-12-14T06:11:58.660Z,4.98
2022-12-14T06:14:48.018Z,4.92
2022-12-14T06:17:37.643Z,5.00
2022-12-14T06:20:27.446Z,4.95
2022-12-14T06:23:16.962Z,4.89
2022-12-14T06:26:06.916Z,4.91
2022-12-14T06:28:58.875Z,4.90
2022-12-14T06:31:49.284Z,4.88
2022-12-14T06:34:42.147Z,4.79
2022-12-14T06:37:33.044Z,4.86
2022-12-14T06:40:22.581Z,4.91
2022-12-14T06:43:12.155Z,4.92
2022-12-14T06:46:02.880Z,4.95
2022-12-14T06:48:54.028Z,4.98
2022-12-14T06:51:44.163Z,4.94
2022-12-14T06:54:33.748Z,4.98
2022-12-14T06:57:23.066Z,4.97
2022-12-14T07:00:13.530Z,4.89
2022-12-14T07:03:04.318Z,4.87
2022-12-14T07:05:58.415Z,4.89
2022-12-14T07:08:48.399Z,4.85
2022-12-14T07:11:37.798Z,4.81
2022-12-14T07:14:27.079Z,4.79
2022-12-14T07:17:16.435Z,4.73
2022-12-14T07:20:09.837Z,4.68
2022-12-14T07:22:59.144Z,4.71
2022-12-14T07:25:49.291Z,4.72
2022-12-14T07:28:40.762Z,4.66
2022-12-14T07:31:31.260Z,4.61
2022-12-14T07:34:20.510Z,4.56
2022-12-14T07:37:11.314Z,4.57
2022-12-14T07:40:00.569Z,4.54
2022-12-14T07:42:50.640Z,4.48
2022-12-14T07:45:41.327Z,4.45
2022-12-14T07:48:30.854Z,4.54
2022-12-14T07:51:24.081Z,4.47
2022-12-14T07:54:15.525Z,4.56
2022-12-14T07:57:05.015Z,4.53
2022-12-14T07:59:57.463Z,4.55
2022-12-14T08:02:47.028Z,4.61
2022-12-14T08:05:40.072Z,4.58
2022-12-14T08:08:29.351Z,4.62
2022-12-14T08:11:22.340Z,4.62
2022-12-14T08:14:17.214Z,4.62
2022-12-14T08:17:06.455Z,4.64
2022-12-14T08:19:55.726Z,4.58
2022-12-14T08:22:45.307Z,4.57
2022-12-14T08:25:34.879Z,4.50
2022-12-14T08:28:27.155Z,4.45
2022-12-14T08:31:18.654Z,4.40
2022-12-14T08:34:09.775Z,4.40
2022-12-14T08:36:59.168Z,4.39
2022-12-14T08:39:49.637Z,4.39
2022-12-14T08:42:39.116Z,4.35
2022-12-14T08:45:30.031Z,4.31
2022-12-14T08:48:19.542Z,4.25
2022-12-14T08:51:11.326Z,4.21
2022-12-14T08:54:01.964Z,4.26
2022-12-14T08:56:52.083Z,4.26
2022-12-14T09:02:54.254Z,4.32
2022-12-14T09:05:43.721Z,4.38
2022-12-14T09:08:33.389Z,4.40
2022-12-14T09:11:23.685Z,4.53
2022-12-14T09:14:13.063Z,4.62
2022-12-14T09:17:02.935Z,4.66
2022-12-14T09:19:53.602Z,4.77
2022-12-14T09:22:42.933Z,4.82
2022-12-14T09:25:32.263Z,4.93
2022-12-14T09:28:21.651Z,5.03
2022-12-14T09:31:17.184Z,5.12
2022-12-14T09:34:06.757Z,5.16
2022-12-14T09:36:57.535Z,5.30
2022-12-14T09:39:46.780Z,5.34
2022-12-14T09:42:54.423Z,5.33
2022-12-14T09:45:52.139Z,5.33
2022-12-14T09:48:43.982Z,5.26
2022-12-14T09:51:38.175Z,5.30
2022-12-14T09:54:33.359Z,5.34
2022-12-14T09:57:41.154Z,5.29
2022-12-14T10:00:38.665Z,5.22
2022-12-14T10:03:51.552Z,5.12
2022-12-14T10:06:48.112Z,5.19
2022-12-14T10:09:48.725Z,5.07
2022-12-14T10:12:50.889Z,5.11
2022-12-14T10:15:51.937Z,5.05
2022-12-14T10:19:22.774Z,5.12
2022-12-14T10:22:17.453Z,5.10
2022-12-14T10:25:14.659Z,5.15
2022-12-14T10:28:11.854Z,5.11
2022-12-14T10:31:03.827Z,5.17
2022-12-14T10:33:54.333Z,5.22
2022-12-14T10:36:55.992Z,5.15
2022-12-14T10:39:59.305Z,5.22
2022-12-14T10:42:56.988Z,5.22
2022-12-14T10:45:55.878Z,5.07
2022-12-14T10:48:54.709Z,5.15
2022-12-14T10:51:48.839Z,5.22
2022-12-14T10:54:46.228Z,5.19
2022-12-14T10:57:35.441Z,5.18
2022-12-14T11:00:26.218Z,5.16
2022-12-14T11:03:16.891Z,5.18
2022-12-14T11:06:15.826Z,5.28
2022-12-14T11:09:23.211Z,5.27
2022-12-14T11:12:21.976Z,5.23
2022-12-14T11:15:28.785Z,5.28
2022-12-14T11:18:32.359Z,5.27
2022-12-14T11:21:32.432Z,5.21
2022-12-14T11:24:26.805Z,5.17
2022-12-14T11:27:21.949Z,5.10
2022-12-14T11:30:18.012Z,5.22
2022-12-14T11:33:17.320Z,5.36
2022-12-14T11:36:07.817Z,5.54
2022-12-14T11:38:58.466Z,5.72
2022-12-14T11:41:51.085Z,5.88
2022-12-14T11:44:40.393Z,6.00
2022-12-14T11:47:29.990Z,5.86
2022-12-14T11:50:32.761Z,6.11
2022-12-14T11:53:24.382Z,6.19
2022-12-14T11:56:18.300Z,6.33
2022-12-14T11:59:16.753Z,6.42
2022-12-14T12:02:20.622Z,6.46
2022-12-14T12:05:16.020Z,6.31
2022-12-14T12:08:16.696Z,6.39
2022-12-14T12:11:16.074Z,6.24
2022-12-14T12:14:23.952Z,6.21
2022-12-14T12:17:20.583Z,6.23
2022-12-14T12:20:34.837Z,6.15
2022-12-14T12:23:32.114Z,6.22
2022-12-14T12:26:27.136Z,6.27
2022-12-14T12:29:27.183Z,6.33
2022-12-14T12:32:24.800Z,6.28
2022-12-14T12:35:21.800Z,6.34
2022-12-14T12:38:23.354Z,6.39
2022-12-14T12:41:33.181Z,6.48
2022-12-14T12:44:39.636Z,6.47
2022-12-14T12:47:46.159Z,6.51
2022-12-14T12:50:43.802Z,6.61
2022-12-14T12:53:45.690Z,6.72
2022-12-14T12:56:44.854Z,7.03
2022-12-14T12:59:42.074Z,7.24
2022-12-14T13:02:36.053Z,7.44
2022-12-14T13:05:46.319Z,7.54
2022-12-14T13:08:41.754Z,7.51
2022-12-14T13:11:37.225Z,7.51
2022-12-14T13:14:33.408Z,7.39
2022-12-14T13:17:35.010Z,7.34
2022-12-14T13:20:28.474Z,7.24
2022-12-14T13:23:43.616Z,7.25
2022-12-14T13:26:58.932Z,7.25
2022-12-14T13:30:07.334Z,7.19
2022-12-14T13:33:35.621Z,7.22
2022-12-14T13:37:43.251Z,7.23
2022-12-14T13:41:03.912Z,7.13
2022-12-14T13:44:40.170Z,7.03
2022-12-14T13:47:40.978Z,6.93
2022-12-14T13:50:36.172Z,6.89
2022-12-14T13:53:32.755Z,6.91
2022-12-14T13:56:30.955Z,6.83
2022-12-14T13:59:33.478Z,6.79
2022-12-14T14:02:43.269Z,6.73
2022-12-14T14:05:47.052Z,6.72
2022-12-14T14:08:42.050Z,6.65
2022-12-14T14:11:58.627Z,6.48
2022-12-14T14:14:53.719Z,6.41
2022-12-14T14:17:47.475Z,5.98
2022-12-14T14:20:42.031Z,6.45
2022-12-14T14:23:38.190Z,6.53
2022-12-14T14:26:30.795Z,6.39
2022-12-14T14:29:25.984Z,6.36
2022-12-14T14:32:42.559Z,6.24
2022-12-14T14:35:38.596Z,6.08
2022-12-14T14:38:32.579Z,6.02
2022-12-14T14:41:26.575Z,5.97
2022-12-14T14:44:26.108Z,6.02
2022-12-14T14:47:24.197Z,6.00
2022-12-14T14:50:25.595Z,5.93
2022-12-14T14:53:30.865Z,5.88
2022-12-14T14:56:37.220Z,5.84
2022-12-14T14:59:50.942Z,5.86
2022-12-14T15:02:43.120Z,5.78
2022-12-14T15:05:44.485Z,5.73
2022-12-14T15:08:41.872Z,5.73
2022-12-14T15:11:43.999Z,5.72
2022-12-14T15:14:43.276Z,5.63
2022-12-14T15:17:36.330Z,5.58
2022-12-14T15:20:29.503Z,5.51
2022-12-14T15:23:18.907Z,5.42
2022-12-14T15:26:17.443Z,5.25
2022-12-14T15:29:06.943Z,5.24
2022-12-14T15:32:00.737Z,5.08
2022-12-14T15:34:56.997Z,4.98
2022-12-14T15:37:53.551Z,4.91
2022-12-14T15:40:56.637Z,4.92
2022-12-14T15:43:53.726Z,4.91
2022-12-14T15:46:56.352Z,4.92
2022-12-14T15:49:46.513Z,5.04
2022-12-14T15:52:36.144Z,5.02
2022-12-14T15:55:33.446Z,5.05
2022-12-14T15:58:30.052Z,4.98
2022-12-14T16:01:26.227Z,5.01
2022-12-14T16:04:20.744Z,5.05
2022-12-14T16:07:19.972Z,5.02
2022-12-14T16:10:23.912Z,5.05
2022-12-14T16:13:21.832Z,5.07
2022-12-14T16:16:14.688Z,5.07
2022-12-14T16:19:26.464Z,5.05
2022-12-14T16:22:23.233Z,5.10
2022-12-14T16:25:20.805Z,5.11
2022-12-14T16:28:29.079Z,5.05
2022-12-14T16:31:21.683Z,5.16
2022-12-14T16:34:18.736Z,5.14
2022-12-14T16:37:31.565Z,5.12
2022-12-14T16:40:35.496Z,5.04
2022-12-14T16:43:33.313Z,5.14
2022-12-14T16:46:23.296Z,5.09
2022-12-14T16:49:23.263Z,5.03
2022-12-14T16:52:20.271Z,4.97
2022-12-14T16:55:14.309Z,4.98
2022-12-14T16:58:03.838Z,4.97
2022-12-14T17:01:01.087Z,4.96
2022-12-14T17:03:59.251Z,4.88
2022-12-14T17:06:53.359Z,4.84
2022-12-14T17:09:42.900Z,4.69
2022-12-14T17:12:32.432Z,4.66
2022-12-14T17:15:24.985Z,4.64
2022-12-14T17:18:14.450Z,4.51
2022-12-14T17:21:04.400Z,4.45
2022-12-14T17:23:57.104Z,4.31
2022-12-14T17:26:47.560Z,4.15
2022-12-14T17:29:36.989Z,4.17
2022-12-14T17:32:31.423Z,3.98
2022-12-14T17:35:24.302Z,4.01
2022-12-14T17:38:16.325Z,3.88
2022-12-14T17:41:08.357Z,3.83
2022-12-14T17:43:58.581Z,3.84
2022-12-14T17:46:50.035Z,3.73
2022-12-14T17:49:39.497Z,3.74
2022-12-14T17:52:32.958Z,3.63
2022-12-14T17:55:25.577Z,3.68
2022-12-14T17:58:16.840Z,3.60
2022-12-14T18:01:07.601Z,3.65
2022-12-14T18:03:57.143Z,3.59
2022-12-14T18:06:46.635Z,3.58
2022-12-14T18:09:35.910Z,3.54
2022-12-14T18:12:25.938Z,3.45
2022-12-14T18:15:23.026Z,3.42
2022-12-14T18:18:12.474Z,3.39
2022-12-14T18:21:04.836Z,3.17
2022-12-14T18:23:54.248Z,3.27
2022-12-14T18:26:44.130Z,3.20
2022-12-14T18:29:33.546Z,3.22
2022-12-14T18:32:24.244Z,3.22
2022-12-14T18:35:19.798Z,3.13
2022-12-14T18:38:09.251Z,3.08
2022-12-14T18:41:01.866Z,2.99
2022-12-14T18:43:51.462Z,2.95
2022-12-14T18:46:40.884Z,2.94
2022-12-14T18:49:31.613Z,2.94
2022-12-14T18:52:20.881Z,2.92
2022-12-14T18:55:18.380Z,2.79
2022-12-14T18:58:07.714Z,2.82
2022-12-14T19:01:00.297Z,2.77
2022-12-14T19:03:50.758Z,2.74
2022-12-14T19:06:44.940Z,2.69
2022-12-14T19:09:34.908Z,2.70
2022-12-14T19:12:24.259Z,2.70
2022-12-14T19:15:17.515Z,2.66
2022-12-14T19:18:06.837Z,2.69
2022-12-14T19:20:56.264Z,2.64
2022-12-14T19:23:47.098Z,2.64
2022-12-14T19:26:39.036Z,2.60
2022-12-14T19:29:28.712Z,2.60
2022-12-14T19:32:18.010Z,2.61
2022-12-14T19:35:08.028Z,2.51
2022-12-14T19:37:57.343Z,2.54
2022-12-14T19:41:00.811Z,2.43
2022-12-14T19:43:50.273Z,2.41
2022-12-14T19:46:39.614Z,2.43
2022-12-14T19:49:28.942Z,2.33
2022-12-14T19:52:18.231Z,2.33
2022-12-14T19:55:08.307Z,2.29
2022-12-14T19:57:59.017Z,2.26
2022-12-14T20:00:48.861Z,2.20
2022-12-14T20:03:39.071Z,2.10
2022-12-14T20:06:28.735Z,2.10
2022-12-14T20:09:19.532Z,2.09
2022-12-14T20:12:11.518Z,1.96
2022-12-14T20:15:02.256Z,2.02
2022-12-14T20:17:52.120Z,2.02
2022-12-14T20:20:41.533Z,1.95
2022-12-14T20:23:31.579Z,1.97
2022-12-14T20:26:23.192Z,1.90
2022-12-14T20:29:14.825Z,1.88
2022-12-14T20:32:05.983Z,1.83
2022-12-14T20:34:55.473Z,1.85
2022-12-14T20:37:44.847Z,1.75
2022-12-14T20:40:38.425Z,1.77
2022-12-14T20:43:29.108Z,1.75
2022-12-14T20:46:31.436Z,1.70
2022-12-14T20:49:23.694Z,1.67
2022-12-14T20:52:13.148Z,1.67
2022-12-14T20:55:02.423Z,1.62
2022-12-14T20:57:51.881Z,1.66
2022-12-14T21:00:41.357Z,1.62
2022-12-14T21:03:31.444Z,1.64
2022-12-14T21:06:24.573Z,1.60
2022-12-14T21:09:13.995Z,1.61
2022-12-14T21:12:20.887Z,1.54
2022-12-14T21:15:10.795Z,1.49
2022-12-14T21:18:00.097Z,1.51
2022-12-14T21:20:49.388Z,1.49
2022-12-14T21:23:42.652Z,1.43
2022-12-14T21:26:33.253Z,1.42
2022-12-14T21:29:23.220Z,1.36
2022-12-14T21:32:12.754Z,1.31
2022-12-14T21:35:02.240Z,1.33
2022-12-14T21:37:51.514Z,1.26
2022-12-14T21:40:59.813Z,1.29
2022-12-14T21:43:49.350Z,1.35
2022-12-14T21:46:39.103Z,1.28
2022-12-14T21:49:28.545Z,1.30
2022-12-14T21:52:21.908Z,1.19
2022-12-14T21:55:11.406Z,1.20
2022-12-14T21:58:16.303Z,1.28
2022-12-14T22:01:08.656Z,1.10
2022-12-14T22:03:57.909Z,1.22
2022-12-14T22:06:47.449Z,1.26
2022-12-14T22:09:36.736Z,1.24
2022-12-14T22:12:26.279Z,1.24
2022-12-14T22:15:17.332Z,1.21
2022-12-14T22:18:07.173Z,1.18
2022-12-14T22:21:04.616Z,1.19
2022-12-14T22:23:54.916Z,1.22
2022-12-14T22:26:45.339Z,1.15
2022-12-14T22:29:34.998Z,1.19
2022-12-14T22:32:26.232Z,1.08
2022-12-14T22:35:15.734Z,1.13
2022-12-14T22:38:05.112Z,1.08
2022-12-14T22:40:54.850Z,1.07
2022-12-14T22:43:45.685Z,1.04
2022-12-14T22:46:35.591Z,1.02
2022-12-14T22:49:26.389Z,1.02
2022-12-14T22:52:18.610Z,1.02
2022-12-14T22:55:12.916Z,1.00
2022-12-14T22:58:02.833Z,0.99
2022-12-14T23:00:54.131Z,0.94
2022-12-14T23:03:44.293Z,0.94
2022-12-14T23:06:35.705Z,0.89
2022-12-14T23:09:42.625Z,0.96
2022-12-14T23:12:49.609Z,0.89
2022-12-14T23:15:56.646Z,0.86
2022-12-14T23:19:03.662Z,0.94
2022-12-14T23:22:11.660Z,0.94
2022-12-14T23:25:18.237Z,1.00
2022-12-14T23:28:25.528Z,0.98
2022-12-14T23:31:31.988Z,0.98
2022-12-14T23:34:38.675Z,0.98
2022-12-14T23:37:47.137Z,0.96
2022-12-14T23:40:54.080Z,0.94
2022-12-14T23:44:01.035Z,0.93
2022-12-14T23:47:08.130Z,0.92
2022-12-14T23:50:14.565Z,0.91
2022-12-14T23:53:25.370Z,0.93
2022-12-14T23:56:32.312Z,0.79
2022-12-14T23:59:39.707Z,0.81
